Time,TemperatureF,DewpointF,PressureIn,WindDirection,WindDirectionDegrees,WindSpeedMPH,WindSpeedGustMPH,Humidity,HourlyPrecipIn,Conditions,Clouds,dailyrainin,SoftwareType,DateUTC
2013-08-11 00:19:00,59.7,55.0,30.16,NNW,343,0.0,0.0,84,0.00,,,0.00,weatherlink.com 1.10,2013-08-11 05:19:00,
2013-08-11 00:49:00,59.2,56.0,30.16,NNW,343,0.0,0.0,88,0.00,,,0.00,weatherlink.com 1.10,2013-08-11 05:49:00,
2013-08-11 01:04:00,59.0,56.0,30.16,NNW,343,0.0,0.0,88,0.00,,,0.00,weatherlink.com 1.10,2013-08-11 06:04:00,
2013-08-11 01:34:00,58.4,56.0,30.17,NNW,343,0.0,0.0,91,0.00,,,0.00,weatherlink.com 1.10,2013-08-11 06:34:00,
2013-08-11 01:49:00,58.1,56.0,30.17,NNW,343,0.0,0.0,92,0.00,,,0.00,weatherlink.com 1.10,2013-08-11 06:49:00,
2013-08-11 02:19:00,57.8,56.0,30.16,NNW,343,0.0,0.0,92,0.00,,,0.00,weatherlink.com 1.10,2013-08-11 07:19:00,
2013-08-11 02:49:00,57.7,55.0,30.15,NNW,343,0.0,0.0,92,0.00,,,0.00,weatherlink.com 1.10,2013-08-11 07:49:00,
2013-08-11 03:04:00,57.6,55.0,30.15,NNW,343,0.0,0.0,92,0.00,,,0.00,weatherlink.com 1.10,2013-08-11 08:04:00,
2013-08-11 03:34:00,57.9,55.0,30.16,NNW,343,0.0,0.0,91,0.00,,,0.00,weatherlink.com 1.10,2013-08-11 08:34:00,
2013-08-11 03:49:00,57.8,55.0,30.16,NNW,343,0.0,0.0,91,0.00,,,0.00,weatherlink.com 1.10,2013-08-11 08:49:00,
2013-08-11 04:04:00,57.4,55.0,30.16,NNW,343,0.0,0.0,92,0.00,,,0.00,weatherlink.com 1.10,2013-08-11 09:04:00,
2013-08-11 04:20:00,57.1,55.0,30.15,NNW,343,0.0,0.0,93,0.00,,,0.00,weatherlink.com 1.10,2013-08-11 09:20:00,
2013-08-11 04:35:00,57.0,55.0,30.14,NNW,343,0.0,0.0,93,0.00,,,0.00,weatherlink.com 1.10,2013-08-11 09:35:00,
2013-08-11 05:05:00,57.3,55.0,30.14,NNW,343,0.0,0.0,92,0.00,,,0.00,weatherlink.com 1.10,2013-08-11 10:05:00,
2013-08-11 05:20:00,58.4,56.0,30.15,NNW,343,0.0,0.0,92,0.00,,,0.00,weatherlink.com 1.10,2013-08-11 10:20:00,
2013-08-11 05:35:00,58.8,56.0,30.14,NNW,343,0.0,0.0,91,0.00,,,0.00,weatherlink.com 1.10,2013-08-11 10:35:00,
2013-08-11 05:50:00,58.8,56.0,30.15,NNW,343,0.0,0.0,89,0.00,,,0.00,weatherlink.com 1.10,2013-08-11 10:50:00,
2013-08-11 06:05:00,58.7,56.0,30.15,NNW,343,0.0,0.0,89,0.00,,,0.00,weatherlink.com 1.10,2013-08-11 11:05:00,
2013-08-11 06:20:00,58.6,55.0,30.15,NNW,343,0.0,0.0,89,0.00,,,0.00,weatherlink.com 1.10,2013-08-11 11:20:00,
2013-08-11 06:35:00,58.5,55.0,30.15,NNW,343,0.0,0.0,89,0.00,,,0.00,weatherlink.com 1.10,2013-08-11 11:35:00,
2013-08-11 06:50:00,58.4,56.0,30.16,NNW,343,0.0,0.0,91,0.00,,,0.00,weatherlink.com 1.10,2013-08-11 11:50:00,
2013-08-11 07:05:00,58.7,56.0,30.15,NNW,343,0.0,0.0,92,0.00,,,0.00,weatherlink.com 1.10,2013-08-11 12:05:00,
2013-08-11 07:20:00,59.3,57.0,30.15,NNW,343,0.0,0.0,92,0.00,,,0.00,weatherlink.com 1.10,2013-08-11 12:20:00,
2013-08-11 07:35:00,60.0,58.0,30.15,NNW,343,0.0,0.0,93,0.00,,,0.00,weatherlink.com 1.10,2013-08-11 12:35:00,
2013-08-11 07:50:00,60.9,58.0,30.15,NNW,343,0.0,0.0,91,0.00,,,0.00,weatherlink.com 1.10,2013-08-11 12:50:00,
2013-08-11 08:05:00,61.7,59.0,30.16,NNW,343,0.0,0.0,91,0.00,,,0.00,weatherlink.com 1.10,2013-08-11 13:05:00,
2013-08-11 08:20:00,62.1,60.0,30.15,NNW,343,0.0,0.0,92,0.00,,,0.00,weatherlink.com 1.10,2013-08-11 13:20:00,
2013-08-11 08:35:00,62.0,60.0,30.16,NNW,343,0.0,0.0,92,0.00,,,0.00,weatherlink.com 1.10,2013-08-11 13:35:00,
2013-08-11 08:50:00,62.1,59.0,30.16,NNW,343,0.0,0.0,90,0.00,,,0.00,weatherlink.com 1.10,2013-08-11 13:50:00,
2013-08-11 09:05:00,62.5,60.0,30.16,NNW,343,0.0,0.0,91,0.00,,,0.00,weatherlink.com 1.10,2013-08-11 14:05:00,
2013-08-11 09:20:00,62.7,60.0,30.16,NNW,343,0.0,0.0,91,0.00,,,0.00,weatherlink.com 1.10,2013-08-11 14:20:00,
2013-08-11 09:35:00,63.0,61.0,30.16,NNW,343,0.0,0.0,92,0.00,,,0.00,weatherlink.com 1.10,2013-08-11 14:35:00,
2013-08-11 10:05:00,63.0,61.0,30.15,NNW,343,0.0,0.0,92,0.00,,,0.00,weatherlink.com 1.10,2013-08-11 15:05:00,
2013-08-11 10:20:00,63.8,61.0,30.14,ESE,119,0.0,2.0,90,0.00,,,0.00,weatherlink.com 1.10,2013-08-11 15:20:00,
2013-08-11 10:35:00,65.0,60.0,30.15,South,170,0.0,3.0,84,0.00,,,0.00,weatherlink.com 1.10,2013-08-11 15:35:00,
2013-08-11 10:50:00,65.8,61.0,30.15,SE,140,2.0,2.0,83,0.00,,,0.00,weatherlink.com 1.10,2013-08-11 15:50:00,
2013-08-11 11:20:00,66.4,60.0,30.14,South,175,0.0,3.0,81,0.00,,,0.00,weatherlink.com 1.10,2013-08-11 16:20:00,
2013-08-11 11:35:00,66.9,61.0,30.14,South,182,2.0,3.0,81,0.00,,,0.00,weatherlink.com 1.10,2013-08-11 16:35:00,
2013-08-11 11:50:00,67.5,62.0,30.14,South,185,2.0,3.0,81,0.00,,,0.00,weatherlink.com 1.10,2013-08-11 16:50:00,
2013-08-11 12:05:00,68.7,63.0,30.13,SSW,193,1.0,3.0,81,0.00,,,0.00,weatherlink.com 1.10,2013-08-11 17:05:00,
2013-08-11 12:20:00,70.4,63.0,30.13,SSW,205,2.0,7.0,77,0.00,,,0.00,weatherlink.com 1.10,2013-08-11 17:20:00,
2013-08-11 12:35:00,71.6,64.0,30.12,SSW,198,1.0,9.0,77,0.00,,,0.00,weatherlink.com 1.10,2013-08-11 17:35:00,
2013-08-11 12:50:00,71.7,63.0,30.12,SW,215,1.0,5.0,75,0.00,,,0.00,weatherlink.com 1.10,2013-08-11 17:50:00,
2013-08-11 13:05:00,71.8,64.0,30.12,SW,223,3.0,6.0,77,0.00,,,0.00,weatherlink.com 1.10,2013-08-11 18:05:00,
2013-08-11 13:20:00,72.5,65.0,30.11,SW,223,2.0,4.0,77,0.00,,,0.00,weatherlink.com 1.10,2013-08-11 18:20:00,
2013-08-11 13:36:00,74.0,66.0,30.10,SW,235,4.0,7.0,75,0.00,,,0.00,weatherlink.com 1.10,2013-08-11 18:36:00,
2013-08-11 13:51:00,75.3,65.0,30.09,SW,217,4.0,7.0,71,0.00,,,0.00,weatherlink.com 1.10,2013-08-11 18:51:00,
2013-08-11 14:06:00,76.8,65.0,30.09,SSW,213,2.0,9.0,68,0.00,,,0.00,weatherlink.com 1.10,2013-08-11 19:06:00,
2013-08-11 14:21:00,76.8,65.0,30.09,SW,235,5.0,11.0,68,0.00,,,0.00,weatherlink.com 1.10,2013-08-11 19:21:00,
2013-08-11 14:36:00,77.8,66.0,30.09,West,272,5.0,6.0,68,0.00,,,0.00,weatherlink.com 1.10,2013-08-11 19:36:00,
2013-08-11 14:51:00,76.9,65.0,30.09,WSW,241,1.0,7.0,67,0.00,,,0.00,weatherlink.com 1.10,2013-08-11 19:51:00,
2013-08-11 15:06:00,77.0,66.0,30.09,WSW,242,2.0,5.0,68,0.00,,,0.00,weatherlink.com 1.10,2013-08-11 20:06:00,
2013-08-11 15:21:00,77.5,66.0,30.09,SW,228,0.0,4.0,68,0.00,,,0.00,weatherlink.com 1.10,2013-08-11 20:21:00,
2013-08-11 15:36:00,77.3,66.0,30.09,WSW,240,0.0,3.0,69,0.00,,,0.00,weatherlink.com 1.10,2013-08-11 20:36:00,
2013-08-11 15:51:00,77.1,66.0,30.09,SSW,197,0.0,2.0,69,0.00,,,0.00,weatherlink.com 1.10,2013-08-11 20:51:00,
2013-08-11 16:06:00,77.6,67.0,30.09,SE,146,0.0,4.0,69,0.00,,,0.00,weatherlink.com 1.10,2013-08-11 21:06:00,
2013-08-11 16:21:00,77.8,67.0,30.08,SSW,204,0.0,2.0,69,0.00,,,0.00,weatherlink.com 1.10,2013-08-11 21:21:00,
2013-08-11 16:36:00,77.3,67.0,30.08,SW,222,0.0,4.0,70,0.00,,,0.00,weatherlink.com 1.10,2013-08-11 21:36:00,
2013-08-11 16:51:00,76.5,66.0,30.08,SSW,207,0.0,2.0,71,0.00,,,0.00,weatherlink.com 1.10,2013-08-11 21:51:00,
2013-08-11 17:06:00,76.4,67.0,30.08,SSW,203,0.0,2.0,73,0.00,,,0.00,weatherlink.com 1.10,2013-08-11 22:06:00,
2013-08-11 17:21:00,76.2,67.0,30.07,SSW,199,0.0,2.0,74,0.00,,,0.00,weatherlink.com 1.10,2013-08-11 22:21:00,
2013-08-11 17:36:00,76.1,68.0,30.07,SSW,199,0.0,0.0,75,0.00,,,0.00,weatherlink.com 1.10,2013-08-11 22:36:00,
2013-08-11 17:51:00,76.1,68.0,30.07,SSW,199,0.0,0.0,76,0.00,,,0.00,weatherlink.com 1.10,2013-08-11 22:51:00,
2013-08-11 18:06:00,76.0,68.0,30.07,SSW,199,0.0,0.0,77,0.00,,,0.00,weatherlink.com 1.10,2013-08-11 23:06:00,
2013-08-11 18:21:00,75.7,68.0,30.06,East,92,0.0,0.0,77,0.00,,,0.00,weatherlink.com 1.10,2013-08-11 23:21:00,
2013-08-11 18:36:00,75.8,68.0,30.06,East,92,0.0,0.0,77,0.00,,,0.00,weatherlink.com 1.10,2013-08-11 23:36:00,
2013-08-11 19:06:00,74.8,68.0,30.05,East,92,0.0,0.0,79,0.00,,,0.00,weatherlink.com 1.10,2013-08-12 00:06:00,
2013-08-11 19:21:00,73.9,68.0,30.05,East,92,0.0,0.0,81,0.00,,,0.00,weatherlink.com 1.10,2013-08-12 00:21:00,
2013-08-11 19:36:00,72.9,67.0,30.06,East,92,0.0,0.0,82,0.00,,,0.00,weatherlink.com 1.10,2013-08-12 00:36:00,
2013-08-11 19:51:00,72.2,67.0,30.05,East,92,0.0,0.0,84,0.00,,,0.00,weatherlink.com 1.10,2013-08-12 00:51:00,
2013-08-11 20:06:00,71.3,67.0,30.05,East,92,0.0,0.0,85,0.00,,,0.00,weatherlink.com 1.10,2013-08-12 01:06:00,
2013-08-11 20:21:00,70.7,66.0,30.05,East,92,0.0,0.0,86,0.00,,,0.00,weatherlink.com 1.10,2013-08-12 01:21:00,
2013-08-11 20:36:00,70.3,66.0,30.05,East,92,0.0,0.0,86,0.00,,,0.00,weatherlink.com 1.10,2013-08-12 01:36:00,
2013-08-11 20:51:00,70.0,66.0,30.05,East,92,0.0,0.0,87,0.00,,,0.00,weatherlink.com 1.10,2013-08-12 01:51:00,
2013-08-11 21:06:00,69.8,66.0,30.05,East,92,0.0,0.0,87,0.00,,,0.00,weatherlink.com 1.10,2013-08-12 02:06:00,
2013-08-11 21:21:00,69.8,66.0,30.06,East,92,0.0,0.0,87,0.00,,,0.00,weatherlink.com 1.10,2013-08-12 02:21:00,
2013-08-11 21:36:00,69.9,65.0,30.06,East,92,0.0,0.0,85,0.00,,,0.00,weatherlink.com 1.10,2013-08-12 02:36:00,
2013-08-11 21:51:00,69.9,65.0,30.07,East,92,0.0,0.0,85,0.00,,,0.00,weatherlink.com 1.10,2013-08-12 02:51:00,
2013-08-11 22:07:00,69.8,65.0,30.06,East,92,0.0,0.0,85,0.00,,,0.00,weatherlink.com 1.10,2013-08-12 03:07:00,
2013-08-11 22:21:00,69.8,65.0,30.06,East,92,0.0,0.0,84,0.00,,,0.00,weatherlink.com 1.10,2013-08-12 03:21:00,
2013-08-11 22:51:00,69.7,65.0,30.05,East,92,0.0,0.0,86,0.00,,,0.00,weatherlink.com 1.10,2013-08-12 03:51:00,
2013-08-11 23:06:00,69.9,66.0,30.05,East,92,0.0,0.0,86,0.00,,,0.00,weatherlink.com 1.10,2013-08-12 04:06:00,
2013-08-11 23:21:00,69.8,66.0,30.05,East,92,0.0,0.0,87,0.00,,,0.00,weatherlink.com 1.10,2013-08-12 04:21:00,
2013-08-11 23:36:00,69.6,66.0,30.06,East,92,0.0,0.0,89,0.00,,,0.00,weatherlink.com 1.10,2013-08-12 04:36:00,
2013-08-11 23:51:00,69.3,66.0,30.05,East,92,0.0,0.0,89,0.00,,,0.00,weatherlink.com 1.10,2013-08-12 04:51:00,